createdAt,value
2018-10-17T00:03:56.411Z,95.00
2018-10-17T00:08:59.801Z,94.90
2018-10-17T00:14:03.189Z,94.90
2018-10-17T00:19:06.639Z,95.00
2018-10-17T00:24:10.087Z,95.10
2018-10-17T00:29:13.588Z,95.10
2018-10-17T00:34:16.972Z,95.00
2018-10-17T00:39:20.370Z,94.90
2018-10-17T00:44:23.797Z,94.90
2018-10-17T00:49:27.250Z,94.90
2018-10-17T00:54:30.650Z,95.00
2018-10-17T00:59:34.032Z,94.90
2018-10-17T01:04:37.422Z,95.00
2018-10-17T01:09:40.819Z,95.00
2018-10-17T01:14:44.211Z,95.10
2018-10-17T01:19:47.598Z,94.90
2018-10-17T01:24:51.007Z,95.00
2018-10-17T01:29:54.403Z,95.10
2018-10-17T01:34:57.818Z,95.20
2018-10-17T01:40:01.195Z,95.10
2018-10-17T01:45:04.922Z,95.20
2018-10-17T01:50:08.783Z,95.10
2018-10-17T01:55:12.221Z,95.10
2018-10-17T02:00:15.676Z,95.40
2018-10-17T02:05:19.055Z,95.20
2018-10-17T02:10:22.447Z,95.40
2018-10-17T02:15:25.827Z,95.40
2018-10-17T02:20:29.267Z,95.40
2018-10-17T02:25:32.664Z,95.50
2018-10-17T02:30:36.076Z,95.00
2018-10-17T02:35:39.472Z,95.20
2018-10-17T02:40:42.927Z,95.20
2018-10-17T02:45:46.311Z,95.40
2018-10-17T02:50:49.699Z,95.30
2018-10-17T02:55:53.099Z,95.40
2018-10-17T03:00:56.507Z,95.30
2018-10-17T03:05:59.894Z,95.20
2018-10-17T03:11:03.334Z,95.30
2018-10-17T03:16:06.739Z,95.30
2018-10-17T03:21:10.131Z,95.30
2018-10-17T03:26:13.531Z,95.20
2018-10-17T03:31:16.986Z,95.10
2018-10-17T03:36:20.304Z,95.10
2018-10-17T03:41:23.726Z,95.20
2018-10-17T03:46:27.148Z,95.10
2018-10-17T03:51:30.535Z,95.10
2018-10-17T03:56:33.957Z,95.10
2018-10-17T04:01:37.327Z,95.00
2018-10-17T04:06:40.729Z,95.20
2018-10-17T04:11:44.100Z,95.20
2018-10-17T04:16:47.484Z,95.20
2018-10-17T04:21:50.853Z,95.10
2018-10-17T04:26:54.264Z,95.10
2018-10-17T04:31:57.690Z,95.00
2018-10-17T04:37:01.207Z,95.10
2018-10-17T04:42:04.825Z,95.20
2018-10-17T04:47:08.301Z,95.20
2018-10-17T04:52:11.763Z,95.10
2018-10-17T04:57:15.143Z,95.40
2018-10-17T05:02:18.573Z,95.70
2018-10-17T05:07:22.064Z,95.60
2018-10-17T05:12:25.386Z,95.40
2018-10-17T05:17:28.806Z,95.70
2018-10-17T05:22:32.254Z,95.40
2018-10-17T05:27:35.747Z,95.30
2018-10-17T05:32:39.126Z,95.10
2018-10-17T05:37:42.527Z,95.20
2018-10-17T05:42:45.947Z,95.00
2018-10-17T05:47:49.355Z,95.30
2018-10-17T05:52:52.729Z,95.30
2018-10-17T05:57:56.386Z,95.30
2018-10-17T06:02:59.761Z,95.30
2018-10-17T06:08:03.240Z,95.40
2018-10-17T06:13:06.787Z,95.60
2018-10-17T06:18:10.240Z,96.00
2018-10-17T06:23:13.786Z,95.80
2018-10-17T06:28:17.660Z,95.90
2018-10-17T06:33:21.079Z,95.90
2018-10-17T06:38:24.494Z,95.80
2018-10-17T06:43:28.185Z,96.10
2018-10-17T06:48:31.846Z,96.70
2018-10-17T06:53:35.248Z,96.80
2018-10-17T06:58:38.768Z,96.00
2018-10-17T07:03:42.185Z,95.80
2018-10-17T07:08:46.152Z,96.00
2018-10-17T07:13:49.531Z,96.00
2018-10-17T07:18:52.915Z,96.30
2018-10-17T07:23:56.337Z,96.00
2018-10-17T07:28:59.815Z,95.70
2018-10-17T07:34:03.264Z,95.60
2018-10-17T08:01:48.243Z,96.00
2018-10-17T08:06:59.132Z,96.60
2018-10-17T08:12:02.612Z,95.80
2018-10-17T08:17:06.036Z,95.80
2018-10-17T08:22:10.541Z,95.60
2018-10-17T08:27:15.968Z,96.00
2018-10-17T08:32:19.530Z,95.90
2018-10-17T08:37:23.338Z,95.70
2018-10-17T08:42:26.353Z,95.40
2018-10-17T08:47:29.882Z,94.90
2018-10-17T08:52:33.287Z,94.50
2018-10-17T08:57:36.662Z,94.50
2018-10-17T09:02:40.099Z,94.10
2018-10-17T09:07:43.488Z,93.70
2018-10-17T09:12:46.899Z,93.50
2018-10-17T09:17:50.278Z,92.70
2018-10-17T09:22:53.656Z,92.30
2018-10-17T09:27:57.209Z,92.70
2018-10-17T09:33:00.594Z,91.60
2018-10-17T09:38:06.103Z,91.20
2018-10-17T09:43:11.497Z,90.60
2018-10-17T09:48:16.882Z,89.40
2018-10-17T09:53:21.809Z,89.20
2018-10-17T09:58:25.327Z,87.30
2018-10-17T10:03:28.718Z,87.60
2018-10-17T10:08:32.245Z,85.90
2018-10-17T10:13:35.657Z,83.50
2018-10-17T10:18:39.047Z,81.80
2018-10-17T10:23:42.493Z,80.10
2018-10-17T10:28:46.099Z,79.30
2018-10-17T10:33:49.781Z,76.60
2018-10-17T10:38:53.171Z,74.20
2018-10-17T10:43:56.660Z,73.70
2018-10-17T10:49:00.070Z,73.70
2018-10-17T10:54:03.672Z,71.40
2018-10-17T10:59:07.303Z,70.50
2018-10-17T11:04:10.871Z,69.80
2018-10-17T11:09:14.346Z,67.70
2018-10-17T11:14:18.030Z,66.80
2018-10-17T11:19:21.363Z,67.90
2018-10-17T11:24:24.784Z,67.00
2018-10-17T11:29:28.372Z,65.60
2018-10-17T11:34:31.880Z,65.20
2018-10-17T11:39:35.804Z,62.40
2018-10-17T11:44:39.380Z,65.90
2018-10-17T11:49:42.803Z,63.10
2018-10-17T11:54:46.494Z,63.80
2018-10-17T11:59:49.949Z,63.30
2018-10-17T12:04:54.090Z,63.10
2018-10-17T12:09:57.353Z,62.50
2018-10-17T12:15:00.829Z,61.20
2018-10-17T12:20:04.462Z,62.10
2018-10-17T12:25:08.849Z,61.80
2018-10-17T12:30:14.607Z,61.40
2018-10-17T12:35:18.101Z,59.20
2018-10-17T12:40:21.652Z,60.50
2018-10-17T12:45:25.355Z,61.20
2018-10-17T12:50:28.844Z,59.80
2018-10-17T12:55:32.507Z,60.90
2018-10-17T13:00:36.395Z,61.30
2018-10-17T13:05:39.824Z,60.70
2018-10-17T13:10:43.286Z,60.00
2018-10-17T13:15:46.935Z,61.60
2018-10-17T13:20:50.426Z,61.60
2018-10-17T13:25:53.932Z,62.10
2018-10-17T13:30:57.357Z,61.40
2018-10-17T13:36:00.760Z,60.00
2018-10-17T13:41:04.222Z,62.40
2018-10-17T13:46:07.772Z,62.00
2018-10-17T13:51:11.410Z,65.40
2018-10-17T13:56:14.927Z,64.30
2018-10-17T14:01:18.733Z,65.50
2018-10-17T14:06:22.143Z,66.70
2018-10-17T14:11:33.300Z,66.50
2018-10-17T14:16:40.682Z,68.40
2018-10-17T14:21:51.628Z,66.20
2018-10-17T14:27:10.346Z,67.50
2018-10-17T14:32:16.831Z,68.20
2018-10-17T14:37:22.134Z,70.20
2018-10-17T14:42:27.722Z,70.80
2018-10-17T14:47:31.401Z,71.20
2018-10-17T14:52:35.079Z,73.20
2018-10-17T14:57:38.500Z,73.40
2018-10-17T15:02:42.007Z,73.30
2018-10-17T15:07:45.543Z,74.60
2018-10-17T15:12:48.919Z,75.60
2018-10-17T15:17:52.380Z,76.70
2018-10-17T15:22:55.781Z,77.40
2018-10-17T15:27:59.156Z,78.40
2018-10-17T15:33:02.627Z,81.30
2018-10-17T15:38:06.128Z,81.70
2018-10-17T15:43:09.637Z,83.30
2018-10-17T15:48:12.994Z,84.80
2018-10-17T15:53:16.546Z,85.40
2018-10-17T15:58:19.927Z,86.60
2018-10-17T16:03:23.429Z,87.70
2018-10-17T16:08:26.827Z,88.60
2018-10-17T16:13:30.215Z,89.30
2018-10-17T16:18:33.673Z,89.80
2018-10-17T16:52:23.209Z,90.50
2018-10-17T16:57:31.531Z,91.70
2018-10-17T17:02:35.161Z,91.90
2018-10-17T17:07:38.826Z,92.00
2018-10-17T17:12:42.280Z,92.20
2018-10-17T17:17:45.665Z,92.80
2018-10-17T17:22:49.190Z,92.60
2018-10-17T17:27:52.603Z,92.60
2018-10-17T17:32:56.020Z,92.80
2018-10-17T17:37:59.424Z,93.10
2018-10-17T17:43:02.835Z,93.10
2018-10-17T17:48:06.461Z,93.10
2018-10-17T17:53:09.847Z,93.20
2018-10-17T17:58:13.257Z,93.30
2018-10-17T18:03:16.646Z,93.30
2018-10-17T18:08:20.020Z,93.60
2018-10-17T18:13:23.428Z,93.60
2018-10-17T18:18:26.823Z,93.70
2018-10-17T18:23:30.255Z,93.70
2018-10-17T18:28:33.725Z,94.00
2018-10-17T18:33:37.055Z,93.90
2018-10-17T18:38:40.870Z,93.90
2018-10-17T18:43:44.257Z,94.00
2018-10-17T18:48:47.675Z,94.00
2018-10-17T18:53:51.127Z,94.00
2018-10-17T18:58:54.567Z,94.10
2018-10-17T19:03:57.952Z,94.30
2018-10-17T19:09:01.413Z,94.30
2018-10-17T19:14:05.020Z,94.40
2018-10-17T19:19:08.401Z,94.60
2018-10-17T19:24:11.873Z,94.80
2018-10-17T19:29:15.323Z,94.80
2018-10-17T19:34:18.742Z,95.00
2018-10-17T19:39:22.234Z,95.10
2018-10-17T19:44:25.715Z,95.10
2018-10-17T19:49:29.164Z,95.20
2018-10-17T19:54:32.595Z,95.00
2018-10-17T19:59:36.012Z,95.00
2018-10-17T20:04:39.503Z,94.90
2018-10-17T20:09:42.905Z,94.90
2018-10-17T20:14:46.327Z,95.00
2018-10-17T20:19:49.743Z,95.50
2018-10-17T20:24:53.216Z,95.10
2018-10-17T20:29:56.607Z,95.80
2018-10-17T20:35:00.099Z,95.80
2018-10-17T20:40:03.616Z,95.70
2018-10-17T20:45:07.293Z,95.80
2018-10-17T20:50:10.768Z,95.70
2018-10-17T20:55:14.128Z,95.50
2018-10-17T21:00:17.642Z,95.70
2018-10-17T21:05:21.051Z,95.40
2018-10-17T21:10:24.428Z,95.40
2018-10-17T21:15:27.811Z,95.60
2018-10-17T21:20:31.202Z,95.60
2018-10-17T21:25:34.598Z,95.40
2018-10-17T21:30:37.967Z,95.30
2018-10-17T21:35:41.368Z,95.20
2018-10-17T21:40:44.780Z,95.20
2018-10-17T21:45:48.204Z,95.90
2018-10-17T21:50:51.625Z,95.90
2018-10-17T21:55:55.067Z,95.90
2018-10-17T22:00:58.415Z,95.90
2018-10-17T22:06:01.815Z,95.80
2018-10-17T22:11:05.242Z,95.70
2018-10-17T22:16:08.611Z,95.70
2018-10-17T22:21:11.987Z,95.60
2018-10-17T22:26:15.413Z,95.50
2018-10-17T22:31:18.823Z,95.60
2018-10-17T22:36:22.196Z,95.60
2018-10-17T22:41:25.660Z,95.50
2018-10-17T22:46:28.991Z,95.60
2018-10-17T22:51:32.455Z,95.50
2018-10-17T22:56:36.088Z,95.60
2018-10-17T23:01:39.507Z,95.40
2018-10-17T23:06:42.977Z,95.50
2018-10-17T23:11:46.351Z,95.60
2018-10-17T23:16:49.737Z,95.50
2018-10-17T23:21:53.121Z,95.50
2018-10-17T23:26:56.524Z,95.40
2018-10-17T23:32:00.055Z,95.40
2018-10-17T23:37:03.438Z,95.30
2018-10-17T23:42:06.970Z,95.40
2018-10-17T23:47:10.510Z,95.50
2018-10-17T23:52:13.911Z,95.60
2018-10-17T23:57:17.283Z,95.60
